메인 페이지
METAR-TAF:

METAR-TAF

공항 :

라 아우로라 국제공항

과테말라, 과테말라

위도: 14-35N, 경도: 090-31W, 고도: 1489m

현재 날씨관측

예보는 12분 전, 06:00시(UTC)에 발표되었습니다.
14kt
온도 18°C
습도 88%
기압 1028 hPa
시정 10km 이상
고도 1400ft 상공 구름 많음

METAR: MGGT 170600Z 35014KT 9999 BKN014 18/16 Q1028 A3036

시각: 00:12 (06:12 UTC)

예보

예보 대상 시간: 17일 06시부터 18일 06시까지 (UTC)
12kt
시정 10km 이상
고도 1600ft 상공 구름 조금
일시적
17일 09시부터 17일 12시까지 (UTC)
고도 1600ft 상공 구름 보통
전환 중
17일 14시부터 17일 16시까지 (UTC)
고도 1800ft 상공 구름 조금
전환 중
17일 18시부터 17일 20시까지 (UTC)
북동10kt
고도 2000ft 상공 구름 조금
전환 중
18일 01시부터 18일 03시까지 (UTC)
고도 1600ft 상공 구름 조금

TAF: MGGT 1706/1806 36012KT 9999 FEW016 TX25/1720Z TN16/1712Z TEMPO 1709/1712 SCT016 BECMG 1714/1716 FEW018 BECMG 1718/1720 05010KT FEW020 BECMG 1801/1803 36012 FEW016

4,000개 이상의 공항 관측 자료 및 예보 (METAR 및 TAF 보고).

지도상에서 검색 가능한 기상관측소가 노란 점과 빨간 점으로 표시되어 있습니다.

기상관측소 명을 보려면 표시 위로 마우스를 이동하세요.

날씨 관측과 예보를 보려면 클릭하세요.

지도 변경 : 확대하려면 엑스 표시가 있는 녹색 버튼, 축소하려면 빼기 표시가 있는 녹색 버튼, 다음 페이지의 지도를 보려면 녹색 화살표를 클릭하세요.


METAR-TAF: